Time;durP1;ratioP1;P1;durP2;ratioP2;P2;SDS_P1;SDS_P2;PMS_P1;PMS_P2;Temp;Humidity;BMP_temperature;BMP_pressure;BME280_temperature;BME280_humidity;BME280_pressure;Samples;Min_cycle;Max_cycle;Signal;HPM_P1;HPM_P2
2022/12/13 00:01:58;;;;;;;43.30;27.40;;;1.40;99.90;;;1.54;77.74;101091.91;5053297;28;20072;-73
2022/12/13 00:04:26;;;;;;;47.73;28.27;;;1.40;99.90;;;1.50;77.59;101078.69;5052980;28;20037;-82
2022/12/13 00:06:56;;;;;;;49.20;28.93;;;1.40;99.90;;;1.70;77.63;101094.19;5052891;28;20037;-82
2022/12/13 00:09:25;;;;;;;45.45;27.67;;;1.60;99.90;;;1.77;77.24;101090.97;5052954;28;20037;-84
2022/12/13 00:11:53;;;;;;;48.73;28.13;;;1.60;99.90;;;1.75;76.93;101078.69;5052922;28;20041;-82
2022/12/13 00:14:22;;;;;;;46.87;27.63;;;1.70;99.90;;;1.02;76.62;100934.63;5053232;28;20098;-81
2022/12/13 00:16:50;;;;;;;47.57;27.77;;;1.80;99.90;;;1.97;76.50;101088.13;5052803;28;20068;-80
2022/12/13 00:19:22;;;;;;;50.97;27.97;;;1.90;99.90;;;1.66;76.38;101036.69;5051790;28;20040;-82
2022/12/13 00:21:51;;;;;;;47.70;28.40;;;1.90;99.90;;;1.53;75.78;101013.66;5053152;28;20079;-81
2022/12/13 00:24:24;;;;;;;46.10;27.23;;;1.90;99.90;;;1.97;75.96;101083.81;5052846;28;20065;-83
2022/12/13 00:26:55;;;;;;;42.67;26.73;;;1.90;99.90;;;1.98;75.66;101077.75;5053671;28;20095;-82
2022/12/13 00:29:23;;;;;;;42.50;28.37;;;2.00;99.90;;;2.10;75.18;101083.38;5051814;28;20045;-82
2022/12/13 00:31:52;;;;;;;45.27;28.30;;;2.00;99.90;;;2.09;74.92;101091.16;5068437;28;20189;-82
2022/12/13 00:34:29;;;;;;;41.77;25.53;;;2.00;99.90;;;1.92;75.23;101059.28;5052743;28;20044;-82
2022/12/13 00:37:03;;;;;;;46.53;27.60;;;2.00;99.90;;;1.45;74.79;100949.97;5052618;28;20040;-81
2022/12/13 00:39:33;;;;;;;46.43;27.43;;;2.10;99.90;;;2.24;74.31;101076.88;5052675;28;20060;-83
2022/12/13 00:42:01;;;;;;;48.72;28.13;;;2.20;99.90;;;2.20;74.37;101077.63;5052915;28;20099;-82
2022/12/13 00:44:31;;;;;;;46.10;27.97;;;2.20;99.90;;;2.18;73.91;101073.19;5054619;28;20113;-82
2022/12/13 00:46:59;;;;;;;50.07;28.20;;;2.20;99.90;;;2.18;73.79;101071.47;5056505;28;20045;-82
2022/12/13 00:49:28;;;;;;;44.80;26.67;;;2.20;99.90;;;2.26;73.63;101064.78;5056936;28;20040;-83
2022/12/13 00:51:56;;;;;;;43.70;25.70;;;2.20;99.90;;;1.98;73.91;101028.19;5056729;28;20045;-83
2022/12/13 00:54:24;;;;;;;44.67;27.07;;;2.20;99.90;;;2.13;73.79;101033.03;5056917;28;20045;-83
2022/12/13 00:56:55;;;;;;;41.23;26.17;;;2.30;99.90;;;2.30;73.53;101064.03;5056310;28;20087;-83
2022/12/13 00:59:23;;;;;;;45.60;25.67;;;2.30;99.90;;;2.35;73.49;101062.44;5056454;28;20041;-83
2022/12/13 01:01:52;;;;;;;47.60;26.70;;;2.30;99.90;;;2.35;73.19;101061.56;5056260;28;20494;-83
2022/12/13 01:04:24;;;;;;;40.70;26.07;;;2.30;99.90;;;2.26;73.15;101054.34;5056431;28;20045;-83
2022/12/13 01:06:54;;;;;;;43.17;25.93;;;2.30;99.90;;;2.26;73.09;101056.94;5056163;28;20033;-83
2022/12/13 01:09:26;;;;;;;38.77;25.83;;;2.30;99.90;;;1.76;72.96;100953.59;5056384;28;20045;-84
2022/12/13 01:11:59;;;;;;;43.10;26.90;;;2.40;99.90;;;2.34;72.91;101055.44;5056070;28;20063;-83
2022/12/13 01:14:29;;;;;;;45.43;26.73;;;2.40;99.90;;;2.28;72.85;101049.16;5056607;28;20087;-84
2022/12/13 01:16:59;;;;;;;41.20;24.85;;;2.30;99.90;;;2.25;72.55;101049.94;5055834;28;20494;-83
2022/12/13 01:19:29;;;;;;;54.27;27.63;;;2.20;99.90;;;2.10;73.05;101032.91;5056278;28;20045;-83
2022/12/13 01:21:59;;;;;;;42.73;27.00;;;2.20;99.90;;;2.22;72.73;101046.34;5055839;28;20057;-82
2022/12/13 01:24:28;;;;;;;43.93;26.47;;;2.20;99.90;;;2.20;72.67;101043.72;5056110;28;20041;-82
2022/12/13 01:26:59;;;;;;;41.13;27.87;;;2.20;99.90;;;2.18;72.95;101040.16;5055707;28;20495;-82
2022/12/13 01:29:30;;;;;;;;;;;2.20;99.90;;;1.93;72.65;100998.50;5056460;28;20401;-83
2022/12/13 01:31:58;;;;;;;44.07;26.77;;;2.20;99.90;;;2.13;72.80;101041.72;5071436;28;20008;-83
2022/12/13 01:34:27;;;;;;;42.53;27.20;;;2.20;99.90;;;1.69;72.76;100958.59;5071309;28;20040;-83
2022/12/13 01:36:56;;;;;;;46.77;26.90;;;2.20;99.90;;;1.62;72.67;100982.69;5055507;28;20045;-83
2022/12/13 01:39:28;;;;;;;46.40;26.70;;;2.10;99.90;;;2.09;72.93;101042.47;5055859;28;20091;-83
2022/12/13 01:42:01;;;;;;;46.03;25.37;;;2.10;99.90;;;0.97;72.95;100894.50;5056104;28;20041;-83
2022/12/13 01:45:09;;;;;;;42.97;26.43;;;2.10;99.90;;;2.04;73.03;101041.44;5055526;28;20044;-83
2022/12/13 01:47:43;;;;;;;46.27;26.73;;;2.10;99.90;;;1.39;72.87;100960.19;5055513;28;20075;-83
2022/12/13 01:50:16;;;;;;;46.10;26.77;;;2.10;99.90;;;2.04;73.01;101043.16;5054382;28;20132;-83
2022/12/13 01:52:46;;;;;;;48.40;25.70;;;2.00;99.90;;;1.22;72.79;100917.94;5054569;28;20080;-82
2022/12/13 01:55:20;;;;;;;42.80;26.27;;;2.00;99.90;;;1.83;72.91;101027.72;5054489;28;20414;-83
2022/12/13 01:57:53;;;;;;;39.87;26.53;;;2.00;99.90;;;2.01;72.79;101051.78;5055496;28;20033;-83
2022/12/13 02:00:22;;;;;;;47.30;27.40;;;2.00;99.90;;;1.90;72.92;101049.66;5055211;28;20129;-82
2022/12/13 02:02:51;;;;;;;47.33;27.63;;;1.90;99.90;;;1.82;72.63;101045.06;5054913;28;20406;-66
2022/12/13 02:05:26;;;;;;;46.30;26.77;;;1.90;99.90;;;1.20;72.64;100935.22;5054915;28;20072;-66
2022/12/13 02:07:57;;;;;;;43.50;26.60;;;1.80;99.90;;;1.83;72.94;101033.81;5054992;28;20069;-66
2022/12/13 02:10:27;;;;;;;48.53;26.73;;;1.80;99.90;;;1.79;73.03;101033.66;5055437;28;20456;-66
2022/12/13 02:12:57;;;;;;;45.40;26.52;;;1.90;99.90;;;1.91;73.22;101041.00;5054618;28;20059;-66
2022/12/13 02:15:30;;;;;;;;;;;1.90;99.90;;;1.83;73.18;101040.75;5070624;28;20084;-65
2022/12/13 02:18:25;;;;;;;50.73;28.53;;;1.90;99.90;;;1.81;73.48;101034.59;5054317;28;19921;-66
2022/12/13 02:21:06;;;;;;;44.67;27.60;;;1.80;99.90;;;1.78;73.25;101029.28;5054838;28;20496;-66
2022/12/13 02:24:29;;;;;;;44.37;26.80;;;1.80;99.90;;;1.83;73.28;101035.53;5054522;28;20049;-66
2022/12/13 02:27:13;;;;;;;43.00;27.07;;;1.80;99.90;;;1.81;73.53;101030.28;5054415;28;20404;-66
2022/12/13 02:30:24;;;;;;;41.23;27.03;;;1.80;99.90;;;1.80;73.61;101022.41;5054257;28;20466;-66
2022/12/13 02:33:19;;;;;;;48.70;28.73;;;1.80;99.90;;;1.06;73.67;100900.03;5055129;28;20041;-65
2022/12/13 02:35:57;;;;;;;42.37;27.27;;;1.80;99.90;;;1.69;73.59;101018.53;5054615;28;20406;-66
2022/12/13 02:38:35;;;;;;;45.30;28.00;;;1.80;99.90;;;1.68;73.69;101022.00;5054686;28;20132;-66
2022/12/13 02:41:15;;;;;;;43.63;28.10;;;1.70;99.90;;;1.68;73.85;101022.00;5055011;28;20045;-66
2022/12/13 02:43:49;;;;;;;47.05;27.80;;;1.70;99.90;;;1.62;74.01;101019.19;5054452;28;20061;-66
2022/12/13 02:46:22;;;;;;;44.60;26.20;;;1.70;99.90;;;1.60;74.01;101016.53;5054915;28;20052;-66
2022/12/13 02:48:55;;;;;;;46.57;27.03;;;1.60;99.90;;;1.56;74.19;101024.19;5054325;28;20550;-65
2022/12/13 02:51:25;;;;;;;51.33;28.83;;;1.60;99.90;;;1.52;74.16;101027.50;5054550;28;20123;-66
2022/12/13 02:53:53;;;;;;;45.78;27.20;;;1.60;99.90;;;1.52;74.12;101022.31;5054266;28;20461;-66
2022/12/13 02:56:21;;;;;;;47.67;28.03;;;1.60;99.90;;;1.48;74.52;101015.22;5054416;28;20052;-66
2022/12/13 02:58:53;;;;;;;46.80;29.10;;;1.50;99.90;;;1.47;74.66;101021.28;5053978;28;20040;-66
2022/12/13 03:01:48;;;;;;;42.27;27.37;;;1.50;99.90;;;1.49;74.74;101014.41;5054364;28;20052;-66
2022/12/13 03:04:35;;;;;;;47.87;27.53;;;1.50;99.90;;;1.46;74.63;101017.78;5054324;28;20132;-66
2022/12/13 03:07:15;;;;;;;47.47;26.93;;;1.50;99.90;;;1.45;74.84;101008.16;5053732;28;20051;-67
2022/12/13 03:09:57;;;;;;;47.27;27.97;;;1.50;99.90;;;1.47;74.80;101008.25;5052900;28;20080;-66
2022/12/13 03:15:29;;;;;;;48.13;29.47;;;1.50;99.90;;;1.40;75.12;101016.66;5053797;28;20120;-66
2022/12/13 03:18:14;;;;;;;45.40;28.57;;;1.50;99.90;;;1.39;75.29;101012.31;5053616;28;20135;-66
2022/12/13 03:20:47;;;;;;;48.13;27.73;;;1.50;99.90;;;1.33;75.18;101012.09;5054036;28;20119;-66
2022/12/13 03:23:16;;;;;;;49.97;29.40;;;1.40;99.90;;;1.31;75.51;101016.34;5054005;28;20546;-66
2022/12/13 03:25:45;;;;;;;51.83;28.97;;;1.40;99.90;;;1.28;75.45;101018.88;5053833;28;20045;-66
2022/12/13 03:28:13;;;;;;;45.13;28.65;;;1.40;99.90;;;1.33;75.44;101014.69;5054075;28;20151;-66
2022/12/13 03:30:42;;;;;;;49.93;29.07;;;1.40;99.90;;;1.29;75.35;101015.41;5053503;28;20037;-66
2022/12/13 03:33:12;;;;;;;45.73;28.03;;;1.40;99.90;;;1.31;75.51;101013.75;5053696;28;20136;-66
2022/12/13 03:35:42;;;;;;;44.80;27.75;;;1.40;99.90;;;1.30;75.59;101019.78;5053560;28;20155;-66
2022/12/13 03:38:13;;;;;;;47.67;28.77;;;1.30;99.90;;;1.30;75.43;101017.16;5052366;28;20458;-66
2022/12/13 03:40:53;;;;;;;45.63;28.70;;;1.30;99.90;;;1.29;75.37;101021.53;5053887;28;20049;-66
2022/12/13 03:43:22;;;;;;;46.30;28.37;;;1.30;99.90;;;1.29;75.26;101013.72;5053633;28;20052;-66
2022/12/13 03:45:51;;;;;;;47.57;29.53;;;1.40;99.90;;;1.28;74.99;101008.44;5053271;28;20387;-66
2022/12/13 03:48:22;;;;;;;50.70;30.03;;;1.40;99.90;;;1.24;75.39;101006.56;5053468;28;20055;-66
2022/12/13 03:50:53;;;;;;;49.90;29.70;;;1.30;99.90;;;1.05;75.37;100978.97;5053290;28;20441;-66
2022/12/13 03:53:23;;;;;;;47.63;28.83;;;1.30;99.90;;;1.22;75.42;101006.50;5053492;28;20059;-66
2022/12/13 03:56:03;;;;;;;46.50;28.00;;;1.30;99.90;;;1.26;75.47;101015.31;5053477;28;20049;-66
2022/12/13 03:58:32;;;;;;;47.45;29.50;;;1.30;99.90;;;1.22;75.57;101013.44;5053072;28;20041;-66
2022/12/13 04:01:06;;;;;;;50.33;29.10;;;1.30;99.90;;;1.10;75.49;100986.97;5053417;28;20072;-67
2022/12/13 04:03:38;;;;;;;44.83;28.13;;;1.30;99.90;;;1.08;75.52;101001.66;5053033;28;20136;-67
2022/12/13 04:06:08;;;;;;;47.37;28.93;;;1.30;99.90;;;1.19;75.55;101023.72;5053365;28;20123;-66
2022/12/13 04:08:38;;;;;;;48.58;27.75;;;1.30;99.90;;;1.16;75.41;101019.28;5053218;28;20052;-66
2022/12/13 04:13:50;;;;;;;47.13;28.23;;;1.20;99.90;;;1.15;75.64;101007.13;5052839;28;20045;-66
2022/12/13 04:16:18;;;;;;;52.33;28.87;;;1.20;99.90;;;1.21;75.26;101001.25;5052913;28;20041;-66
2022/12/13 04:18:48;;;;;;;45.90;27.20;;;1.20;99.90;;;1.19;75.40;100992.47;5053599;28;20048;-66
2022/12/13 04:21:16;;;;;;;50.53;28.63;;;1.30;99.90;;;1.13;75.55;100997.47;5057029;28;20056;-66
2022/12/13 04:23:44;;;;;;;47.83;28.77;;;1.20;99.90;;;1.08;75.42;100999.94;5056946;28;20506;-66
2022/12/13 04:26:12;;;;;;;45.80;26.87;;;1.20;99.90;;;1.06;75.54;100999.00;5057220;28;20124;-66
2022/12/13 04:28:41;;;;;;;47.70;27.50;;;1.20;99.90;;;1.10;75.82;101002.59;5057211;28;20430;-66
2022/12/13 04:31:09;;;;;;;46.93;27.77;;;1.10;99.90;;;1.05;75.64;100998.91;5057139;28;20522;-66
2022/12/13 04:33:37;;;;;;;50.73;28.30;;;1.10;99.90;;;1.03;75.64;100995.41;5057050;28;20556;-66
2022/12/13 04:36:09;;;;;;;44.25;27.63;;;1.10;99.90;;;1.04;75.73;100997.16;5057050;28;20037;-66
2022/12/13 04:38:37;;;;;;;45.90;28.35;;;1.10;99.90;;;1.06;75.78;100992.88;5056679;28;20052;-66
2022/12/13 04:41:07;;;;;;;48.97;28.77;;;1.10;99.90;;;0.95;75.65;100986.44;5057236;28;20056;-66
2022/12/13 04:43:35;;;;;;;47.42;29.25;;;1.10;99.90;;;1.02;75.84;100997.13;5056691;28;20127;-66
2022/12/13 04:46:04;;;;;;;48.20;28.63;;;1.10;99.90;;;0.99;76.05;100989.16;5055577;28;20049;-66
2022/12/13 04:48:33;;;;;;;52.33;29.60;;;1.00;99.90;;;0.98;76.06;100995.22;5056551;28;20427;-66
2022/12/13 04:51:02;;;;;;;50.20;29.37;;;1.00;99.90;;;0.77;76.06;100951.06;5056768;28;20033;-65
2022/12/13 04:53:31;;;;;;;46.57;27.47;;;1.10;99.90;;;1.01;75.74;100991.84;5056407;28;20049;-66
2022/12/13 04:56:02;;;;;;;53.28;29.30;;;1.00;99.90;;;1.02;75.80;100998.81;5056392;28;20045;-66
2022/12/13 04:58:31;;;;;;;47.67;28.43;;;1.10;99.90;;;0.98;75.95;100997.81;5056283;28;20044;-66
2022/12/13 05:00:59;;;;;;;45.90;29.67;;;1.00;99.90;;;1.01;75.74;100994.47;5055155;28;20049;-66
2022/12/13 05:03:28;;;;;;;51.33;28.93;;;1.00;99.90;;;1.03;75.78;100996.25;5055461;28;20065;-66
2022/12/13 05:05:56;;;;;;;46.97;28.67;;;1.10;99.90;;;1.01;75.91;100995.31;5055192;28;20482;-66
2022/12/13 05:08:25;;;;;;;52.27;29.00;;;1.10;99.90;;;0.99;76.10;100991.78;5056433;28;20045;-66
2022/12/13 05:10:56;;;;;;;46.77;27.57;;;1.10;99.90;;;1.01;75.90;100984.91;5056133;28;20044;-66
2022/12/13 05:13:24;;;;;;;50.63;29.03;;;1.00;99.90;;;0.99;76.26;100983.09;5055152;28;20060;-66
2022/12/13 05:15:56;;;;;;;49.33;29.03;;;1.00;99.90;;;1.04;76.07;100990.25;5056272;28;20049;-66
2022/12/13 05:18:24;;;;;;;51.17;29.80;;;1.00;99.90;;;1.04;76.05;100989.34;5055068;28;20562;-66
2022/12/13 05:20:53;;;;;;;51.20;29.60;;;1.10;99.90;;;1.04;76.12;100991.94;5055794;28;20118;-66
2022/12/13 05:23:24;;;;;;;56.10;30.50;;;1.10;99.90;;;0.97;75.85;100988.22;5056404;28;20051;-66
2022/12/13 05:25:52;;;;;;;48.73;28.73;;;1.10;99.90;;;0.96;75.90;100982.97;5055927;28;20111;-66
2022/12/13 05:28:25;;;;;;;53.10;29.17;;;1.00;99.90;;;0.97;76.01;100988.22;5055803;28;20041;-66
2022/12/13 05:30:58;;;;;;;48.43;28.57;;;1.00;99.90;;;0.88;75.90;100983.59;5055745;28;20045;-66
2022/12/13 05:33:27;;;;;;;51.03;29.70;;;0.90;99.90;;;0.65;75.95;101002.69;5055745;28;20131;-66
2022/12/13 05:35:55;;;;;;;51.53;30.13;;;0.80;99.90;;;0.71;76.35;100982.13;5055600;28;20647;-66
2022/12/13 05:38:30;;;;;;;45.93;28.93;;;0.80;99.90;;;0.52;76.47;100947.56;5055931;28;20044;-66
2022/12/13 05:40:58;;;;;;;50.73;29.10;;;0.80;99.90;;;0.66;76.60;100981.03;5054442;28;20064;-66
2022/12/13 05:43:28;;;;;;;57.70;29.67;;;0.70;99.90;;;0.68;76.56;100976.78;5056036;28;20145;-66
2022/12/13 05:46:11;;;;;;;50.50;30.17;;;0.80;99.90;;;0.68;76.79;100975.88;5055828;28;20048;-66
2022/12/13 05:48:40;;;;;;;50.90;28.77;;;0.70;99.90;;;0.69;76.97;100978.56;5055681;28;20048;-66
2022/12/13 05:51:10;;;;;;;53.17;29.50;;;0.70;99.90;;;0.62;77.07;100975.69;5055609;28;20052;-66
2022/12/13 05:53:40;;;;;;;51.30;29.42;;;0.70;99.90;;;0.53;76.73;100950.19;5055646;28;20051;-65
2022/12/13 05:56:09;;;;;;;52.47;29.13;;;0.70;99.90;;;0.64;77.10;100961.88;5055289;28;20135;-65
2022/12/13 05:58:40;;;;;;;52.47;28.60;;;0.70;99.90;;;0.59;77.22;100963.44;5055805;28;20064;-66
2022/12/13 06:01:11;;;;;;;47.37;29.13;;;0.70;99.90;;;0.54;77.32;100962.38;5055208;28;20443;-66
2022/12/13 06:03:40;;;;;;;50.43;28.70;;;0.70;99.90;;;0.60;77.42;100962.59;5055183;28;20095;-66
2022/12/13 06:06:11;;;;;;;55.47;30.13;;;0.70;99.90;;;0.59;77.28;100965.16;5055087;28;20505;-65
2022/12/13 06:08:40;;;;;;;53.83;31.03;;;0.60;99.90;;;0.58;77.61;100959.03;5055392;28;20045;-65
2022/12/13 06:11:09;;;;;;;59.73;34.90;;;0.70;99.90;;;0.59;77.54;100958.25;5055283;28;20051;-65
2022/12/13 06:13:43;;;;;;;51.87;31.23;;;0.70;99.90;;;0.61;77.47;100963.50;5054983;28;20063;-65
2022/12/13 06:16:13;;;;;;;50.97;30.90;;;0.70;99.90;;;0.60;77.30;100964.34;5054942;28;20048;-66
2022/12/13 06:18:52;;;;;;;47.40;29.42;;;0.70;99.90;;;0.47;77.60;100965.59;5055100;28;20402;-66
2022/12/13 06:21:31;;;;;;;51.83;30.33;;;0.70;99.90;;;0.64;77.45;100967.09;5055185;28;20429;-66
2022/12/13 06:24:14;;;;;;;53.77;31.50;;;0.70;99.90;;;0.63;77.49;100954.91;5054746;28;20275;-66
2022/12/13 06:26:43;;;;;;;;;;;0.70;99.90;;;0.65;77.46;100958.47;5055489;28;20049;-65
2022/12/13 06:29:15;;;;;;;58.63;30.98;;;0.80;99.90;;;0.64;77.26;100966.22;5054631;28;20390;-66
2022/12/13 06:31:54;;;;;;;51.47;30.63;;;0.70;99.90;;;0.55;77.16;100965.84;5054909;28;20047;-65
2022/12/13 06:34:32;;;;;;;50.43;28.70;;;0.70;99.90;;;0.50;77.35;100975.22;5054886;28;20040;-66
2022/12/13 06:37:02;;;;;;;52.20;30.70;;;0.60;99.90;;;0.34;77.16;100978.06;5053419;28;20055;-65
2022/12/13 06:39:31;;;;;;;46.78;30.63;;;0.50;99.90;;;-0.47;77.82;100838.94;5054722;28;20087;-65
2022/12/13 06:42:04;;;;;;;50.17;30.45;;;0.40;99.90;;;0.03;77.93;100981.22;5053785;28;20045;-65
2022/12/13 06:44:35;;;;;;;50.00;30.43;;;0.30;99.90;;;0.30;78.25;100977.06;5054663;28;20049;-71
2022/12/13 06:47:05;;;;;;;49.90;28.80;;;0.30;99.90;;;0.34;78.43;100976.38;5054603;28;20033;-68
2022/12/13 06:49:42;;;;;;;51.27;29.63;;;0.40;99.90;;;0.38;78.20;100975.66;5054240;28;20521;-69
2022/12/13 06:52:13;;;;;;;57.60;32.07;;;0.40;99.90;;;0.39;78.38;100974.81;5054532;28;20041;-67
2022/12/13 06:54:43;;;;;;;49.88;31.02;;;0.40;99.90;;;0.36;78.53;100971.22;5053058;28;20072;-68
2022/12/13 06:57:12;;;;;;;52.60;31.00;;;0.40;99.90;;;0.36;78.50;100994.63;5054286;28;20486;-67
2022/12/13 06:59:42;;;;;;;62.47;32.27;;;0.50;99.90;;;0.38;78.43;100973.06;5054192;28;20037;-72
2022/12/13 07:02:12;;;;;;;56.75;33.00;;;0.50;99.90;;;0.38;78.35;100966.97;5054525;28;20049;-69
2022/12/13 07:04:53;;;;;;;53.27;32.33;;;0.50;99.90;;;0.45;78.42;100969.84;5052882;28;20135;-68
2022/12/13 07:07:22;;;;;;;53.45;31.73;;;0.50;99.90;;;0.44;78.40;100965.47;5054029;28;20380;-68
2022/12/13 07:09:50;;;;;;;54.40;31.67;;;0.60;99.90;;;0.47;78.23;100975.09;5053805;28;20098;-68
2022/12/13 07:12:19;;;;;;;52.20;32.00;;;0.50;99.90;;;0.48;78.13;100971.69;5053717;28;20106;-69
2022/12/13 07:14:49;;;;;;;54.43;30.67;;;0.60;99.90;;;0.46;78.07;100969.03;5053705;28;20049;-68
2022/12/13 07:17:17;;;;;;;57.22;33.10;;;0.60;99.90;;;0.50;77.89;100978.72;5053693;28;20051;-68
2022/12/13 07:20:06;;;;;;;54.13;31.70;;;0.60;99.90;;;0.54;77.81;100972.78;5053867;28;20545;-68
2022/12/13 07:22:36;;;;;;;55.20;33.10;;;0.60;99.90;;;0.51;77.59;100972.69;5053975;28;20045;-67
2022/12/13 07:25:14;;;;;;;59.80;33.40;;;0.60;99.90;;;0.53;77.77;100971.00;5053569;28;20560;-67
2022/12/13 07:27:57;;;;;;;52.60;31.13;;;0.60;99.90;;;0.44;77.70;100975.88;5054051;28;20374;-67
2022/12/13 07:30:33;;;;;;;55.13;31.10;;;0.50;99.90;;;0.42;77.64;100980.16;5053832;28;20044;-67
2022/12/13 07:33:09;;;;;;;56.07;32.87;;;0.50;99.90;;;0.31;77.54;100962.38;5053697;28;20068;-69
2022/12/13 07:35:37;;;;;;;56.93;31.90;;;0.50;99.90;;;0.50;77.53;100980.44;5053591;28;20423;-68
2022/12/13 07:38:06;;;;;;;54.03;30.73;;;0.60;99.90;;;0.44;77.55;100975.00;5052379;28;20049;-68
2022/12/13 07:40:35;;;;;;;53.70;31.23;;;0.60;99.90;;;0.53;77.54;100985.72;5053138;28;20057;-68
2022/12/13 07:43:04;;;;;;;51.03;30.17;;;0.60;99.90;;;0.46;77.23;100983.75;5053233;28;20609;-67
2022/12/13 07:45:34;;;;;;;56.00;32.00;;;0.60;99.90;;;0.55;77.36;100979.75;5053312;28;20398;-68
2022/12/13 07:48:07;;;;;;;;;;;0.60;99.90;;;0.54;77.53;100980.56;5053878;28;20045;-69
2022/12/13 07:50:35;;;;;;;56.60;29.33;;;0.60;99.90;;;0.57;77.79;100975.50;5068882;28;20035;-69
2022/12/13 07:53:06;;;;;;;51.97;30.70;;;0.60;99.90;;;0.63;78.01;100977.44;5052545;28;20443;-69
2022/12/13 07:55:35;;;;;;;51.67;31.13;;;0.70;99.90;;;0.77;78.01;100969.28;5052952;28;20041;-69
2022/12/13 07:58:10;;;;;;;55.63;30.87;;;0.80;99.90;;;1.01;77.79;100991.84;5052265;28;20045;-68
2022/12/13 08:00:42;;;;;;;55.43;31.00;;;1.00;99.90;;;1.15;77.74;101001.00;5053011;28;20041;-70
2022/12/13 08:03:14;;;;;;;52.50;32.40;;;1.20;99.90;;;1.26;76.99;100997.09;5053005;28;20045;-67
2022/12/13 08:05:59;;;;;;;55.67;31.97;;;1.30;99.90;;;1.16;76.67;100966.34;5053242;28;20037;-67
2022/12/13 08:08:28;;;;;;;52.03;31.07;;;1.40;99.90;;;1.42;76.25;100999.38;5053172;28;20110;-68
2022/12/13 08:11:02;;;;;;;50.73;31.10;;;1.40;99.90;;;1.47;75.71;101003.91;5052993;28;20075;-67
2022/12/13 08:13:30;;;;;;;44.30;29.13;;;1.50;99.90;;;1.51;75.23;101005.78;5068614;28;20051;-66
2022/12/13 08:16:01;;;;;;;53.50;31.43;;;1.60;99.90;;;1.57;75.20;101012.91;5052752;28;20041;-66
2022/12/13 08:18:30;;;;;;;50.53;30.87;;;1.60;99.90;;;1.60;74.94;101013.91;5051887;28;20454;-67
2022/12/13 08:20:59;;;;;;;50.70;30.60;;;1.60;99.90;;;1.60;74.62;101013.91;5052666;28;20047;-67
2022/12/13 08:23:30;;;;;;;51.77;31.20;;;1.70;99.90;;;1.70;75.07;101015.13;5052670;28;20053;-67
2022/12/13 08:25:59;;;;;;;47.95;29.83;;;1.70;99.90;;;1.75;74.55;101013.53;5052845;28;20127;-68
2022/12/13 08:28:27;;;;;;;48.33;30.33;;;1.80;99.90;;;1.80;74.12;101004.16;5053307;28;20043;-66
2022/12/13 08:30:56;;;;;;;50.97;30.27;;;1.90;99.90;;;1.89;73.91;101011.38;5052972;28;20064;-65
2022/12/13 08:33:25;;;;;;;53.30;31.47;;;1.90;99.90;;;1.88;73.97;101023.50;5052699;28;20041;-65
2022/12/13 08:35:54;;;;;;;58.38;31.42;;;2.00;99.90;;;1.96;73.90;101027.25;5052987;28;20135;-65
2022/12/13 08:38:22;;;;;;;54.70;32.53;;;2.00;99.90;;;2.08;74.00;101030.28;5052539;28;20032;-65
2022/12/13 08:40:51;;;;;;;57.23;32.60;;;2.10;99.90;;;2.10;73.64;101020.78;5052703;28;20059;-65
2022/12/13 08:43:19;;;;;;;55.13;32.23;;;2.20;99.90;;;2.20;73.64;101020.22;5052524;28;20052;-65
2022/12/13 08:45:51;;;;;;;60.27;33.63;;;2.30;99.90;;;2.41;73.24;101004.34;5052654;28;20471;-66
2022/12/13 08:48:30;;;;;;;52.97;32.33;;;2.50;99.90;;;2.48;72.83;101015.00;5052429;28;20483;-65
2022/12/13 08:51:01;;;;;;;54.90;31.48;;;2.50;99.90;;;2.46;71.94;101023.63;5051633;28;20049;-66
2022/12/13 08:53:30;;;;;;;53.67;32.70;;;2.60;99.90;;;2.18;71.72;101013.19;5052604;28;20096;-66
2022/12/13 08:56:11;;;;;;;56.90;32.23;;;2.40;99.90;;;1.91;72.00;101010.59;5052571;28;20041;-66
2022/12/13 08:58:40;;;;;;;54.43;31.47;;;2.10;99.90;;;1.61;72.45;100983.50;5052461;28;20055;-67
2022/12/13 09:01:09;;;;;;;47.57;30.47;;;1.80;99.90;;;1.25;73.14;100902.41;5052692;28;20038;-66
2022/12/13 09:03:39;;;;;;;49.07;30.07;;;1.90;99.90;;;2.22;72.98;101017.66;5052429;28;20487;-69
2022/12/13 09:06:09;;;;;;;50.80;30.10;;;2.20;99.90;;;2.25;72.97;101025.56;5055259;28;20035;-67
2022/12/13 09:08:38;;;;;;;54.83;30.23;;;2.30;99.90;;;2.48;72.65;101021.94;5056473;28;20037;-65
2022/12/13 09:11:07;;;;;;;50.40;30.03;;;2.40;99.90;;;2.47;72.42;101028.91;5056056;28;20049;-67
2022/12/13 09:13:51;;;;;;;58.40;31.60;;;2.50;99.90;;;1.80;72.06;100903.34;5056102;28;20494;-67
2022/12/13 09:16:29;;;;;;;50.97;30.23;;;2.50;99.90;;;2.54;71.95;101022.13;5056375;28;20398;-67
2022/12/13 09:19:05;;;;;;;53.93;32.33;;;2.50;99.90;;;2.72;72.33;101013.13;5056543;28;20099;-66
2022/12/13 09:21:53;;;;;;;55.17;32.33;;;2.70;99.90;;;2.80;71.95;101023.78;5056104;28;20122;-65
2022/12/13 09:24:30;;;;;;;50.63;31.77;;;2.90;99.90;;;2.77;70.98;101017.59;5055902;28;20033;-68
2022/12/13 09:27:04;;;;;;;47.33;29.87;;;2.90;99.90;;;2.60;71.55;101018.00;5056161;28;20072;-65
2022/12/13 09:29:38;;;;;;;51.07;31.00;;;2.70;99.90;;;2.80;71.58;101022.91;5055845;28;20041;-66
2022/12/13 09:32:06;;;;;;;54.73;31.50;;;2.80;99.90;;;2.88;71.18;101031.84;5055669;28;20048;-67
2022/12/13 09:34:36;;;;;;;53.87;31.70;;;2.90;99.90;;;2.74;71.22;101029.72;5055650;28;20071;-67
2022/12/13 09:37:07;;;;;;;54.77;31.97;;;2.80;99.90;;;2.39;71.72;101017.34;5055861;28;20133;-67
2022/12/13 09:39:36;;;;;;;55.13;31.40;;;2.50;99.90;;;2.76;71.88;101032.38;5055554;28;20045;-67
2022/12/13 09:42:05;;;;;;;50.87;31.93;;;2.70;99.90;;;3.08;71.63;101022.84;5056032;28;20056;-63
2022/12/13 09:44:44;;;;;;;55.47;31.53;;;3.00;99.90;;;3.02;70.44;101018.31;5054439;28;20073;-66
2022/12/13 09:47:31;;;;;;;52.03;32.07;;;3.10;99.90;;;2.81;71.04;101015.09;5055669;28;20051;-67
2022/12/13 09:50:09;;;;;;;50.20;31.10;;;2.80;99.90;;;2.85;71.14;101009.13;5055446;28;20045;-67
2022/12/13 09:52:44;;;;;;;54.10;30.98;;;2.90;99.90;;;3.23;71.31;101004.97;5055698;28;20073;-65
2022/12/13 09:55:22;;;;;;;51.40;32.13;;;3.10;99.90;;;3.00;70.23;101012.16;5055350;28;20052;-69
2022/12/13 09:57:52;;;;;;;55.43;32.17;;;3.10;99.90;;;2.74;70.92;100987.94;5055570;28;20140;-68
2022/12/13 10:00:24;;;;;;;52.63;31.38;;;2.90;99.90;;;2.84;71.65;101012.59;5055199;28;20057;-69
2022/12/13 10:02:56;;;;;;;49.43;31.43;;;2.80;99.90;;;3.03;71.18;101014.88;5054996;28;20410;-69
2022/12/13 10:05:30;;;;;;;54.77;31.67;;;3.00;99.90;;;3.05;70.95;101013.19;5055096;28;20487;-68
2022/12/13 10:08:09;;;;;;;55.63;32.33;;;3.00;99.90;;;2.51;71.70;101009.88;5055259;28;20041;-71
2022/12/13 10:10:38;;;;;;;53.13;33.83;;;2.70;99.90;;;2.48;72.45;101007.16;5055269;28;20457;-65
2022/12/13 10:13:16;;;;;;;60.43;33.67;;;2.50;99.90;;;2.82;72.32;100997.72;5054839;28;20037;-68
2022/12/13 10:15:51;;;;;;;62.10;33.93;;;2.70;99.90;;;2.82;72.87;100995.09;5054974;28;20045;-70
2022/12/13 10:18:31;;;;;;;63.97;34.40;;;2.80;99.90;;;2.98;72.28;100997.31;5054296;28;20491;-68
2022/12/13 10:21:04;;;;;;;60.97;35.03;;;3.00;99.90;;;3.60;72.65;100992.03;5054759;28;20041;-57
2022/12/13 10:23:33;;;;;;;53.07;31.63;;;3.50;99.90;;;3.59;71.92;100991.13;5055226;28;20132;-57
2022/12/13 10:26:21;;;;;;;55.20;33.17;;;3.60;99.90;;;3.38;71.57;100987.09;5054812;28;20045;-57
2022/12/13 10:29:02;;;;;;;54.13;34.10;;;3.40;99.90;;;3.38;70.72;100981.88;5054734;28;20068;-57
2022/12/13 10:31:30;;;;;;;52.43;33.37;;;3.40;99.90;;;3.30;71.04;100975.53;5054593;28;20449;-57
2022/12/13 10:33:59;;;;;;;48.97;31.77;;;3.30;99.90;;;3.30;70.97;100967.69;5053431;28;20071;-58
2022/12/13 10:36:34;;;;;;;52.57;34.07;;;3.30;99.90;;;3.37;71.85;100961.78;5054955;28;20402;-58
2022/12/13 10:39:03;;;;;;;50.70;32.93;;;3.30;99.90;;;3.53;70.99;100959.59;5054343;28;20072;-58
2022/12/13 10:41:36;;;;;;;49.80;32.77;;;3.50;99.90;;;3.46;70.43;100962.94;5054388;28;20114;-58